Last 24 Hour KALB Observations

Last 24 hours of surface weather observations from the Albany County Airport. Observations taken by the National Weather Service.


		
KALB 080451Z 28010G18KT 10SM SCT014 SCT033 08/06 A3014 RMK AO2 SLP208 T00830061
 401440083=
KALB 080500Z 27011KT 10SM BKN014 09/06 A3015=
KALB 080500Z 27011KT 10SM BKN014 09/06 A3015 RMK AO2 T00890061=
KALB 080538Z 28015G23KT 10SM BKN015 OVC044 08/06 A3015 RMK AO2 T00830061=
KALB 080538Z 28015G23KT 10SM BKN015 OVC044 08/06 A3015=
KALB 080551Z 28016KT 10SM SCT015 BKN044 08/06 A3016 RMK AO2 SLP213 T00830056
 10133 20083 53008=
KALB 080651Z 27007KT 10SM FEW017 BKN043 07/05 A3017 RMK AO2 SLP216 T00670050=
KALB 080711Z 27007KT 10SM BKN015 07/05 A3018 RMK AO2 T00720050=
KALB 080711Z 27007KT 10SM BKN015 07/05 A3018=
KALB 080733Z 27012KT 10SM BKN014 07/05 A3018 RMK AO2 T00720050=
KALB 080733Z 27012KT 10SM BKN014 07/05 A3018=
KALB 080751Z 27014KT 10SM SCT014 07/04 A3018 RMK AO2 SLP222 T00720044=
KALB 080851Z 28014G18KT 10SM FEW014 SCT028 07/04 A3020 RMK AO2 SLP226 T00720039
 51009=
KALB 080951Z 28013KT 10SM BKN030 07/04 A3021 RMK AO2 SLP230 T00720039=
KALB 081051Z 30006KT 10SM SCT045 06/03 A3021 RMK AO2 SLP232 T00610033=
KALB 081151Z 30007KT 10SM FEW030 FEW045 06/03 A3023 RMK AO2 SLP237 70004
 T00610033 10083 20056 53010=
KALB 081251Z 33007KT 10SM SCT028 BKN040 07/03 A3023 RMK AO2 SLP237 T00670028=
KALB 081351Z 33005KT 10SM FEW028 BKN044 08/03 A3023 RMK AO2 SLP239 T00780028=
KALB 081451Z 30011KT 10SM SCT030 SCT065 BKN220 09/02 A3024 RMK AO2 SLP241
 T00890017 53004=
KALB 081551Z 30010KT 10SM FEW037 SCT044 BKN065 08/02 A3024 RMK AO2 SLP241
 T00830017=
KALB 081651Z 29010KT 10SM FEW042 FEW060 BKN250 09/02 A3023 RMK AO2 SLP237
 T00890022=
KALB 081751Z 29010KT 10SM FEW038 BKN047 BKN065 BKN250 09/02 A3022 RMK AO2
 SLP234 T00890017 10106 20056 58006=
KALB 081851Z 29007KT 10SM FEW040 BKN055 BKN250 09/01 A3022 RMK AO2 SLP235
 T00890011=
KALB 081951Z 28012KT 10SM FEW045 BKN060 BKN250 08/01 A3022 RMK AO2 SLP235
 T00830011=
KALB 082051Z 29007KT 10SM FEW045 FEW065 FEW250 07/00 A3022 RMK AO2 SLP233
 T00720000 58001=
KALB 082151Z 33007KT 10SM FEW045 FEW065 FEW250 06/M02 A3023 RMK AO2 SLP238
 T00561017=
KALB 082251Z 36011G17KT 10SM FEW045 FEW065 04/01 A3026 RMK AO2 SLP249 T00440006=
KALB 082351Z 36010KT 10SM FEW065 03/M01 A3028 RMK AO2 SLP257 T00331011 10094
 20033 53023=
KALB 090051Z 35006KT 10SM CLR 02/M03 A3030 RMK AO2 SLP263 T00221028=
KALB 090151Z 33005KT 10SM CLR 02/M03 A3031 RMK AO2 SLP266 T00171028=
KALB 090251Z 30006KT 10SM CLR 00/M03 A3032 RMK AO2 SLP270 T00001033 51012=
KALB 090351Z 00000KT 10SM FEW032 01/M03 A3033 RMK AO2 SLP272 T00061028=
KALB 090451Z 32005KT 10SM FEW030 M01/M03 A3033 RMK AO2 SLP271 T10111033
 401061011=